Time;durP1;ratioP1;P1;durP2;ratioP2;P2;SDS_P1;SDS_P2;PMS_P1;PMS_P2;Temp;Humidity;BMP_temperature;BMP_pressure;BME280_temperature;BME280_humidity;BME280_pressure;Samples;Min_cycle;Max_cycle;Signal;HPM_P1;HPM_P2
2022/01/14 00:00:05;;;;;;;71.10;30.48;;;-1.30;79.70;;;;;;4975281;28;20031;-66
2022/01/14 00:02:31;;;;;;;70.72;29.40;;;-1.30;79.90;;;;;;4976833;28;20043;-67
2022/01/14 00:04:57;;;;;;;74.15;30.52;;;-1.30;80.00;;;;;;4973016;28;20105;-67
2022/01/14 00:07:24;;;;;;;73.93;31.70;;;-1.30;80.00;;;;;;4974179;28;20545;-67
2022/01/14 00:09:50;;;;;;;73.32;30.58;;;-1.30;79.90;;;;;;4975153;28;20058;-66
2022/01/14 00:12:22;;;;;;;73.13;29.98;;;-1.30;80.00;;;;;;4974250;28;20113;-67
2022/01/14 00:15:13;;;;;;;67.57;28.88;;;-1.30;79.90;;;;;;4974302;28;20038;-67
2022/01/14 00:17:38;;;;;;;64.72;27.63;;;-1.30;79.90;;;;;;4976801;28;20034;-67
2022/01/14 00:20:05;;;;;;;62.15;28.52;;;-1.30;79.90;;;;;;4974259;28;20037;-65
2022/01/14 00:22:31;;;;;;;71.55;29.38;;;-1.20;80.00;;;;;;4976616;28;20038;-67
2022/01/14 00:33:08;;;;;;;63.08;28.25;;;-1.20;79.50;;;;;;4977034;28;20112;-67
2022/01/14 00:35:36;;;;;;;62.47;28.00;;;-1.10;79.50;;;;;;4975807;28;20031;-67
2022/01/14 00:38:03;;;;;;;66.68;28.70;;;-1.10;79.30;;;;;;4976103;28;20039;-67
2022/01/14 00:40:28;;;;;;;66.50;29.45;;;-1.10;79.30;;;;;;4977760;28;20050;-68
2022/01/14 00:42:54;;;;;;;68.47;29.83;;;-1.10;79.20;;;;;;4974716;28;20532;-67
2022/01/14 00:45:20;;;;;;;67.60;29.27;;;-1.10;78.90;;;;;;4976794;28;20513;-66
2022/01/14 00:47:48;;;;;;;67.00;28.30;;;-1.10;78.80;;;;;;4977151;28;20636;-66
2022/01/14 00:50:15;;;;;;;68.22;28.95;;;-1.10;78.80;;;;;;4974188;28;20662;-67
2022/01/14 00:52:42;;;;;;;63.17;28.20;;;-1.10;78.80;;;;;;4974890;28;20125;-66
2022/01/14 00:55:12;;;;;;;65.05;27.98;;;-1.10;78.60;;;;;;4977744;28;20132;-67
2022/01/14 01:00:25;;;;;;;60.38;28.15;;;-1.10;78.70;;;;;;4974614;28;20041;-67
2022/01/14 01:02:51;;;;;;;64.78;28.85;;;-1.20;78.60;;;;;;4973089;28;20050;-66
2022/01/14 01:05:18;;;;;;;63.08;28.20;;;-1.20;78.50;;;;;;4974046;28;20035;-66
2022/01/14 01:07:50;;;;;;;65.55;28.33;;;-1.20;78.50;;;;;;4975749;28;20034;-67
2022/01/14 01:10:17;;;;;;;61.35;28.67;;;-1.20;78.50;;;;;;4972126;28;20526;-65
2022/01/14 01:12:52;;;;;;;70.18;28.83;;;-1.20;78.60;;;;;;4968895;28;20046;-67
2022/01/14 01:15:18;;;;;;;66.38;29.40;;;-1.30;78.70;;;;;;4972987;28;20038;-67
2022/01/14 01:17:44;;;;;;;63.20;28.08;;;-1.30;78.80;;;;;;4970377;28;20513;-67
2022/01/14 01:20:14;;;;;;;64.07;28.63;;;-1.30;79.00;;;;;;4978142;28;20076;-67
2022/01/14 01:22:40;;;;;;;62.40;27.35;;;-1.30;79.00;;;;;;4975560;28;20031;-67
2022/01/14 01:25:08;;;;;;;63.90;26.83;;;-1.30;79.00;;;;;;4978319;28;20038;-66
2022/01/14 01:27:38;;;;;;;64.30;28.48;;;-1.30;79.00;;;;;;4977741;28;20538;-66
2022/01/14 01:30:37;;;;;;;59.80;26.02;;;-1.30;79.00;;;;;;4977064;28;20060;-65
2022/01/14 01:33:05;;;;;;;61.55;27.23;;;-1.30;78.80;;;;;;4973812;28;20554;-66
2022/01/14 01:35:33;;;;;;;58.83;27.17;;;-1.30;78.80;;;;;;4974463;28;20697;-66
2022/01/14 01:37:58;;;;;;;60.78;26.73;;;-1.30;78.80;;;;;;4972439;28;20057;-67
2022/01/14 01:40:26;;;;;;;61.22;27.45;;;-1.30;78.70;;;;;;4974113;28;20413;-67
2022/01/14 01:42:54;;;;;;;67.32;28.83;;;-1.30;78.60;;;;;;4973413;28;20089;-66
2022/01/14 01:45:23;;;;;;;63.55;28.05;;;-1.20;78.50;;;;;;4976199;28;20103;-66
2022/01/14 01:47:50;;;;;;;66.47;28.73;;;-1.20;78.30;;;;;;4974552;28;20035;-67
2022/01/14 01:50:19;;;;;;;64.88;27.92;;;-1.30;78.10;;;;;;4974290;28;20062;-67
2022/01/14 01:52:45;;;;;;;65.20;28.55;;;-1.30;78.10;;;;;;4973696;28;20066;-67
2022/01/14 01:55:11;;;;;;;62.72;27.17;;;-1.30;78.20;;;;;;4981389;28;20081;-66
2022/01/14 01:57:37;;;;;;;66.97;27.88;;;-1.30;78.20;;;;;;4975327;28;20046;-66
2022/01/14 02:00:08;;;;;;;63.75;28.20;;;-1.30;78.30;;;;;;4976772;28;20120;-67
2022/01/14 02:02:36;;;;;;;63.65;27.33;;;-1.30;78.30;;;;;;4981671;28;20030;-67
2022/01/14 02:05:03;;;;;;;58.10;25.00;;;-1.30;78.20;;;;;;4973819;28;22104;-66
2022/01/14 02:07:28;;;;;;;63.35;28.75;;;-1.30;78.10;;;;;;4973872;28;20026;-67
2022/01/14 02:09:54;;;;;;;59.78;27.20;;;-1.40;78.00;;;;;;4975487;28;20082;-67
2022/01/14 02:12:20;;;;;;;65.20;27.55;;;-1.30;78.00;;;;;;4972085;28;20050;-66
2022/01/14 02:14:56;;;;;;;62.85;27.00;;;-1.40;78.00;;;;;;4976072;28;20049;-66
2022/01/14 02:23:07;;;;;;;58.70;26.45;;;-1.40;78.10;;;;;;4973902;28;20109;-67
2022/01/14 02:25:33;;;;;;;60.70;26.80;;;-1.30;79.00;;;;;;4977625;28;20054;-67
2022/01/14 02:28:05;;;;;;;65.80;28.13;;;-1.30;78.20;;;;;;4976662;28;20176;-67
2022/01/14 02:30:31;;;;;;;60.55;26.05;;;-1.30;78.20;;;;;;4979059;28;20035;-66
2022/01/14 02:32:58;;;;;;;62.58;27.45;;;-1.30;78.30;;;;;;4979970;28;20035;-67
2022/01/14 02:35:24;;;;;;;62.10;26.75;;;-1.30;78.30;;;;;;4978188;28;20031;-67
2022/01/14 02:37:50;;;;;;;58.35;26.40;;;-1.30;78.20;;;;;;4976487;28;20034;-67
2022/01/14 02:40:17;;;;;;;59.88;26.67;;;-1.30;78.10;;;;;;4977685;28;20523;-66
2022/01/14 02:42:42;;;;;;;60.35;27.35;;;-1.30;78.00;;;;;;4979176;28;20557;-67
2022/01/14 02:45:11;;;;;;;60.60;28.35;;;-1.30;77.90;;;;;;4977624;28;20051;-67
2022/01/14 02:47:36;;;;;;;62.97;27.88;;;-1.30;77.70;;;;;;4976948;28;20035;-66
2022/01/14 02:50:05;;;;;;;69.15;28.90;;;-1.30;77.60;;;;;;4980664;28;20077;-66
2022/01/14 02:52:56;;;;;;;64.05;27.55;;;-1.40;77.60;;;;;;4978811;28;22408;-68
2022/01/14 02:55:28;;;;;;;62.83;26.13;;;-1.40;77.80;;;;;;4980228;28;20039;-67
2022/01/14 02:57:56;;;;;;;59.75;26.30;;;-1.50;78.00;;;;;;4975552;28;20506;-66
2022/01/14 03:00:28;;;;;;;66.63;28.00;;;-1.50;78.50;;;;;;4974901;28;20524;-65
2022/01/14 03:02:57;;;;;;;68.05;28.73;;;-1.50;78.20;;;;;;4976338;28;20034;-67
2022/01/14 03:05:22;;;;;;;63.40;27.55;;;-1.50;78.10;;;;;;4980822;28;20046;-67
2022/01/14 03:07:49;;;;;;;66.32;28.45;;;-1.60;78.00;;;;;;4977443;28;20034;-68
2022/01/14 03:10:18;;;;;;;62.10;27.42;;;-1.60;78.00;;;;;;4980180;28;20494;-66
2022/01/14 03:12:44;;;;;;;63.60;27.23;;;-1.60;78.00;;;;;;4974694;28;20073;-67
2022/01/14 03:15:11;;;;;;;62.10;27.13;;;-1.60;78.00;;;;;;4975067;28;20035;-67
2022/01/14 03:17:37;;;;;;;66.57;28.65;;;-1.60;78.00;;;;;;4979414;28;20088;-67
2022/01/14 03:20:07;;;;;;;59.83;26.23;;;-1.70;78.80;;;;;;4979458;28;20034;-66
2022/01/14 03:22:35;;;;;;;59.45;25.58;;;-1.70;78.00;;;;;;4977736;28;20030;-67
2022/01/14 03:27:46;;;;;;;57.80;24.05;;;-1.90;78.20;;;;;;4978679;28;20064;-67
2022/01/14 03:30:12;;;;;;;55.60;24.13;;;-1.80;78.50;;;;;;4978034;28;20402;-68
2022/01/14 03:32:39;;;;;;;55.85;25.02;;;-1.80;78.50;;;;;;4980611;28;20505;-68
2022/01/14 03:35:06;;;;;;;58.97;25.75;;;-1.80;78.60;;;;;;4977421;28;20831;-67
2022/01/14 03:37:32;;;;;;;55.90;23.90;;;-1.80;78.60;;;;;;4977503;28;20038;-67
2022/01/14 03:39:57;;;;;;;57.15;25.77;;;-1.70;78.70;;;;;;4974926;28;20053;-67
2022/01/14 03:42:23;;;;;;;58.28;25.13;;;-1.70;78.60;;;;;;4979231;28;20224;-67
2022/01/14 03:44:49;;;;;;;55.40;24.80;;;-1.70;78.60;;;;;;4976895;28;20035;-67
2022/01/14 03:47:14;;;;;;;59.15;26.65;;;-1.70;78.50;;;;;;4975544;28;20038;-67
2022/01/14 03:49:40;;;;;;;56.95;25.20;;;-1.70;78.40;;;;;;4976331;28;20027;-67
2022/01/14 03:52:06;;;;;;;62.13;25.90;;;-1.70;78.30;;;;;;4975996;28;20039;-67
2022/01/14 03:54:31;;;;;;;59.70;24.50;;;-1.70;78.30;;;;;;4977997;28;20086;-67
2022/01/14 03:56:57;;;;;;;56.80;26.48;;;-1.70;78.30;;;;;;4976636;28;20394;-67
2022/01/14 03:59:22;;;;;;;61.53;26.42;;;-1.70;78.20;;;;;;4977298;28;20116;-67
2022/01/14 04:01:48;;;;;;;63.63;27.33;;;-1.70;78.00;;;;;;4976512;28;20039;-67
2022/01/14 04:04:14;;;;;;;65.55;27.60;;;-1.70;77.90;;;;;;4975446;28;20034;-66
2022/01/14 04:06:39;;;;;;;66.38;28.30;;;-1.70;77.80;;;;;;4977001;28;20089;-67
2022/01/14 04:09:05;;;;;;;60.60;26.45;;;-1.70;78.00;;;;;;4976538;28;20094;-67
2022/01/14 04:11:33;;;;;;;57.58;26.27;;;-1.70;78.30;;;;;;4974708;28;20050;-67
2022/01/14 04:15:36;;;;;;;60.15;25.23;;;-1.80;78.30;;;;;;4973796;28;20093;-67
2022/01/14 04:16:45;;;;;;;62.40;26.05;;;-1.80;79.20;;;;;;4976160;28;20045;-67
2022/01/14 04:19:11;;;;;;;58.10;25.60;;;-1.80;78.40;;;;;;4976740;28;20038;-66
2022/01/14 04:21:37;;;;;;;63.85;27.17;;;-1.80;78.30;;;;;;4975855;28;20056;-67
2022/01/14 04:24:03;;;;;;;60.55;26.15;;;-1.80;78.40;;;;;;4976770;28;20590;-67
2022/01/14 04:26:29;;;;;;;60.17;26.30;;;-1.90;78.30;;;;;;4976810;28;20821;-67
2022/01/14 04:28:54;;;;;;;57.05;24.90;;;-1.90;78.40;;;;;;4977060;28;20038;-67
2022/01/14 04:31:20;;;;;;;59.00;25.52;;;-1.90;78.50;;;;;;4975438;28;20038;-67
2022/01/14 04:33:45;;;;;;;60.58;26.50;;;-1.90;79.50;;;;;;4974017;28;20118;-67
2022/01/14 04:36:11;;;;;;;60.35;25.92;;;-1.90;78.70;;;;;;4976031;28;20039;-67
2022/01/14 04:38:37;;;;;;;54.35;24.17;;;-1.90;78.80;;;;;;4972656;28;20061;-66
2022/01/14 04:41:03;;;;;;;59.90;26.20;;;-1.80;79.60;;;;;;4971387;28;20038;-66
2022/01/14 04:43:29;;;;;;;53.28;24.73;;;-1.80;78.60;;;;;;4972939;28;20529;-67
2022/01/14 04:48:32;;;;;;;57.10;24.35;;;-1.80;78.20;;;;;;4973445;28;20042;-67
2022/01/14 04:50:59;;;;;;;54.80;23.92;;;-1.80;78.10;;;;;;4971454;28;20528;-67
2022/01/14 04:53:26;;;;;;;55.28;24.23;;;-1.90;78.10;;;;;;4973159;28;20119;-67
2022/01/14 04:55:52;;;;;;;61.08;26.60;;;-1.80;78.30;;;;;;4974683;28;20058;-67
2022/01/14 04:58:18;;;;;;;60.78;25.27;;;-1.90;78.20;;;;;;4971742;28;20047;-66
2022/01/14 05:00:44;;;;;;;58.47;26.23;;;-1.90;78.10;;;;;;4966319;28;20125;-67
2022/01/14 05:03:10;;;;;;;58.70;24.83;;;-1.90;78.00;;;;;;4975369;28;20050;-67
2022/01/14 05:05:39;;;;;;;55.85;25.98;;;-1.90;78.80;;;;;;4975448;28;20040;-67
2022/01/14 05:08:09;;;;;;;58.65;25.30;;;-1.90;78.00;;;;;;4973616;28;20605;-68
2022/01/14 05:10:48;;;;;;;60.58;25.95;;;-1.90;78.00;;;;;;4974493;28;20038;-67
2022/01/14 05:13:14;;;;;;;68.95;28.48;;;-1.90;78.00;;;;;;4974856;28;20101;-67
2022/01/14 05:15:40;;;;;;;62.22;27.17;;;-2.00;77.80;;;;;;4973119;28;20042;-67
2022/01/14 05:18:05;;;;;;;62.42;26.42;;;-2.00;78.00;;;;;;4972165;28;20027;-66
2022/01/14 05:20:31;;;;;;;62.28;27.42;;;-2.00;78.10;;;;;;4973966;28;20047;-66
2022/01/14 05:22:57;;;;;;;58.85;27.35;;;-2.00;78.20;;;;;;4976950;28;20031;-65
2022/01/14 05:25:22;;;;;;;65.55;27.05;;;-2.10;78.20;;;;;;4975104;28;20510;-67
2022/01/14 05:27:48;;;;;;;60.30;25.75;;;-2.10;78.30;;;;;;4976481;28;20078;-67
2022/01/14 05:30:15;;;;;;;60.90;27.15;;;-2.10;78.40;;;;;;4974052;28;20031;-67
2022/01/14 05:32:49;;;;;;;57.35;26.00;;;-2.00;78.50;;;;;;4975643;28;20034;-67
2022/01/14 05:35:26;;;;;;;58.25;25.48;;;-2.10;78.50;;;;;;4976210;28;20039;-65
2022/01/14 05:37:52;;;;;;;62.28;26.83;;;-2.00;78.60;;;;;;4976410;28;20096;-67
2022/01/14 05:40:20;;;;;;;63.92;27.70;;;-2.00;78.60;;;;;;4993701;28;20132;-66
2022/01/14 05:42:45;;;;;;;56.00;24.60;;;-2.00;78.30;;;;;;4974260;28;20031;-68
2022/01/14 05:45:13;;;;;;;57.15;26.23;;;-2.00;78.30;;;;;;4975135;28;20042;-67
2022/01/14 05:47:40;;;;;;;59.50;26.13;;;-2.00;78.30;;;;;;4975787;28;21204;-66
2022/01/14 05:50:18;;;;;;;60.75;25.48;;;-1.90;78.30;;;;;;4975598;28;20395;-67
2022/01/14 05:52:44;;;;;;;53.17;22.27;;;-1.90;78.30;;;;;;4974697;28;20309;-67
2022/01/14 05:55:12;;;;;;;54.97;23.90;;;-2.00;78.70;;;;;;4976572;28;20402;-67
2022/01/14 05:57:38;;;;;;;50.42;20.92;;;-2.00;78.30;;;;;;4971827;28;20271;-67
2022/01/14 06:00:09;;;;;;;54.10;24.52;;;-2.00;78.50;;;;;;4972011;28;20100;-65
2022/01/14 06:02:35;;;;;;;50.53;22.92;;;-1.90;78.60;;;;;;4969136;28;20483;-67
2022/01/14 06:05:01;;;;;;;58.83;24.10;;;-1.90;78.60;;;;;;4973508;28;20034;-67
2022/01/14 06:07:26;;;;;;;59.63;24.95;;;-1.90;78.50;;;;;;4976143;28;20216;-66
2022/01/14 06:09:52;;;;;;;52.33;23.20;;;-1.90;78.40;;;;;;4979455;28;20128;-67
2022/01/14 06:12:18;;;;;;;57.80;25.35;;;-1.90;78.40;;;;;;4971666;28;20119;-66
2022/01/14 06:14:43;;;;;;;55.90;24.60;;;-1.90;78.40;;;;;;4976290;28;20503;-67
2022/01/14 06:17:09;;;;;;;58.65;25.98;;;-1.80;78.30;;;;;;4973424;28;20584;-67
2022/01/14 06:19:35;;;;;;;59.08;25.35;;;-1.80;78.20;;;;;;4975761;28;20031;-67
2022/01/14 06:22:00;;;;;;;59.85;25.35;;;-1.90;78.20;;;;;;4974220;28;20082;-67
2022/01/14 06:24:26;;;;;;;58.10;24.25;;;-1.90;78.30;;;;;;4975566;28;20034;-66
2022/01/14 06:26:51;;;;;;;54.03;23.27;;;-1.90;78.40;;;;;;4977182;28;20047;-67
2022/01/14 06:29:17;;;;;;;57.20;24.42;;;-1.90;78.50;;;;;;4975730;28;20537;-67
2022/01/14 06:31:43;;;;;;;52.78;23.25;;;-1.90;78.50;;;;;;4975777;28;20061;-67
2022/01/14 06:34:08;;;;;;;57.65;24.38;;;-1.90;78.50;;;;;;4974673;28;20062;-67
2022/01/14 06:36:34;;;;;;;61.10;25.15;;;-1.90;78.40;;;;;;4974952;28;20517;-67
2022/01/14 06:38:59;;;;;;;66.50;28.63;;;-1.90;78.40;;;;;;4978870;28;20104;-67
2022/01/14 06:41:25;;;;;;;62.72;26.98;;;-1.90;78.50;;;;;;4974478;28;20031;-67
2022/01/14 06:43:51;;;;;;;63.22;28.73;;;-1.90;78.50;;;;;;4975283;28;20031;-68
2022/01/14 06:46:17;;;;;;;68.78;29.55;;;-1.90;78.60;;;;;;4974170;28;20494;-67
2022/01/14 06:48:42;;;;;;;67.10;29.35;;;-1.90;78.70;;;;;;4974375;28;20133;-68
2022/01/14 06:51:14;;;;;;;66.75;29.58;;;-1.90;78.60;;;;;;4976592;28;20081;-68
2022/01/14 06:53:40;;;;;;;62.92;28.70;;;-1.90;78.40;;;;;;4977595;28;20685;-68
2022/01/14 06:56:05;;;;;;;72.95;30.35;;;-1.90;78.30;;;;;;4974700;28;20196;-68
2022/01/14 06:58:31;;;;;;;68.57;29.73;;;-1.90;78.30;;;;;;4974201;28;20447;-67
2022/01/14 07:00:57;;;;;;;68.72;29.77;;;-1.90;78.20;;;;;;4975202;28;20046;-67
2022/01/14 07:03:22;;;;;;;64.60;28.40;;;-2.00;78.30;;;;;;4974409;28;20042;-67
2022/01/14 07:05:48;;;;;;;64.47;30.30;;;-2.00;78.30;;;;;;4972849;28;20881;-67
2022/01/14 07:08:14;;;;;;;62.38;29.80;;;-2.00;78.30;;;;;;4974482;28;20502;-68
2022/01/14 07:10:40;;;;;;;65.40;29.08;;;-2.00;78.50;;;;;;4974675;28;20497;-67
2022/01/14 07:13:05;;;;;;;67.60;29.25;;;-2.00;78.40;;;;;;4975043;28;20210;-68
2022/01/14 07:15:31;;;;;;;67.93;28.58;;;-2.00;78.50;;;;;;4979423;28;20023;-67
2022/01/14 07:17:57;;;;;;;62.92;27.95;;;-2.00;78.60;;;;;;4978373;28;20030;-68
2022/01/14 07:20:23;;;;;;;62.40;26.50;;;-2.00;78.70;;;;;;4980633;28;20418;-68
2022/01/14 07:22:49;;;;;;;57.95;25.83;;;-2.00;78.80;;;;;;4979804;28;20070;-68
2022/01/14 07:25:15;;;;;;;58.85;25.63;;;-2.00;78.90;;;;;;4980844;28;20035;-68
2022/01/14 07:27:41;;;;;;;59.85;26.52;;;-2.00;79.00;;;;;;4979774;28;20022;-67
2022/01/14 07:30:08;;;;;;;51.55;23.85;;;-2.00;79.00;;;;;;4976818;28;20041;-68
2022/01/14 07:32:33;;;;;;;56.50;25.17;;;-2.00;79.00;;;;;;4979949;28;20054;-67
2022/01/14 07:34:59;;;;;;;52.50;23.27;;;-2.00;79.10;;;;;;4977854;28;20494;-67
2022/01/14 07:37:25;;;;;;;59.75;25.27;;;-1.90;79.30;;;;;;4976259;28;20137;-65
2022/01/14 07:39:51;;;;;;;53.70;24.17;;;-1.90;79.50;;;;;;4977763;28;20067;-68
2022/01/14 07:42:17;;;;;;;53.58;24.60;;;-1.90;79.60;;;;;;4978407;28;20038;-68
2022/01/14 07:44:43;;;;;;;54.08;23.92;;;-1.80;79.80;;;;;;4980094;28;20034;-68
2022/01/14 07:47:08;;;;;;;52.85;23.85;;;-1.80;79.90;;;;;;4977818;28;20035;-68
2022/01/14 07:49:35;;;;;;;55.47;22.83;;;-1.80;80.00;;;;;;4978847;28;20512;-67
2022/01/14 07:52:00;;;;;;;54.03;23.95;;;-1.70;80.10;;;;;;4976933;28;21120;-68
2022/01/14 07:54:26;;;;;;;50.58;22.55;;;-1.60;80.20;;;;;;4975739;28;20038;-67
2022/01/14 07:56:57;;;;;;;52.70;23.50;;;-1.60;80.20;;;;;;4978455;28;20022;-67
2022/01/14 07:59:25;;;;;;;51.97;23.40;;;-1.60;80.20;;;;;;4975776;28;20085;-67
2022/01/14 08:01:55;;;;;;;51.38;23.70;;;-1.50;80.30;;;;;;4978029;28;20279;-66
2022/01/14 08:04:21;;;;;;;55.60;23.77;;;-1.50;80.40;;;;;;4979203;28;20035;-67
2022/01/14 08:06:49;;;;;;;57.40;25.58;;;-1.40;80.60;;;;;;4975903;28;20044;-68
2022/01/14 08:09:17;;;;;;;56.25;24.05;;;-1.40;80.70;;;;;;4978342;28;20409;-68
2022/01/14 08:11:44;;;;;;;52.97;24.90;;;-1.30;80.90;;;;;;4975345;28;20142;-67
2022/01/14 08:14:10;;;;;;;48.53;22.88;;;-1.30;81.00;;;;;;4979338;28;20038;-68
2022/01/14 08:16:35;;;;;;;55.88;24.13;;;-1.20;81.00;;;;;;4976214;28;20434;-67
2022/01/14 08:19:01;;;;;;;51.65;23.40;;;-1.20;80.90;;;;;;4984333;28;20121;-68
2022/01/14 08:21:27;;;;;;;52.33;23.85;;;-1.10;81.10;;;;;;4978710;28;20050;-66
2022/01/14 08:23:52;;;;;;;55.92;25.10;;;-1.10;80.90;;;;;;4975285;28;20126;-67
2022/01/14 08:26:18;;;;;;;58.33;27.27;;;-1.10;80.80;;;;;;4973160;28;20584;-67
2022/01/14 08:28:44;;;;;;;56.60;24.67;;;-1.00;80.80;;;;;;4976325;28;20050;-68
2022/01/14 08:31:09;;;;;;;60.75;27.25;;;-1.00;80.90;;;;;;4978104;28;20034;-67
2022/01/14 08:33:35;;;;;;;58.75;27.45;;;-0.90;80.90;;;;;;4979590;28;20034;-66
2022/01/14 08:36:01;;;;;;;55.95;25.75;;;-0.90;81.00;;;;;;4979418;28;20031;-67
2022/01/14 08:38:27;;;;;;;54.03;24.45;;;-0.80;81.10;;;;;;4978412;28;20073;-67
2022/01/14 08:40:53;;;;;;;55.00;24.60;;;-0.70;81.30;;;;;;4976480;28;20110;-68
2022/01/14 08:43:19;;;;;;;52.50;24.77;;;-0.70;81.30;;;;;;4976394;28;20038;-67
2022/01/14 08:45:45;;;;;;;55.42;25.05;;;-0.60;81.60;;;;;;4976282;28;20573;-67
2022/01/14 08:48:11;;;;;;;58.63;24.10;;;-0.60;81.70;;;;;;4975996;28;20125;-67
2022/01/14 08:50:38;;;;;;;53.42;24.33;;;-0.50;81.80;;;;;;4977151;28;20034;-67
2022/01/14 08:53:08;;;;;;;54.40;24.80;;;-0.40;82.00;;;;;;4976090;28;20027;-67
2022/01/14 08:55:35;;;;;;;52.42;24.05;;;-0.30;82.10;;;;;;4975656;28;20057;-66
2022/01/14 08:58:03;;;;;;;54.40;24.50;;;-0.20;82.10;;;;;;4976113;28;20510;-67
2022/01/14 09:00:29;;;;;;;52.72;24.15;;;-0.10;82.30;;;;;;4976326;28;20038;-67
2022/01/14 09:02:55;;;;;;;51.47;24.60;;;-0.10;82.20;;;;;;4973122;28;20030;-67
2022/01/14 09:05:22;;;;;;;55.60;25.10;;;0.00;82.30;;;;;;4979763;28;20402;-67
2022/01/14 09:07:48;;;;;;;52.85;25.13;;;0.10;82.30;;;;;;4976876;28;20114;-67
2022/01/14 09:10:15;;;;;;;50.10;23.33;;;0.20;82.30;;;;;;4976556;28;20034;-66
2022/01/14 09:12:40;;;;;;;49.90;23.98;;;0.20;82.10;;;;;;4976301;28;20112;-68
2022/01/14 09:15:08;;;;;;;51.92;24.42;;;0.30;82.10;;;;;;4978617;28;20094;-67
2022/01/14 09:17:33;;;;;;;49.88;23.42;;;0.40;82.20;;;;;;4976577;28;20035;-67
2022/01/14 09:20:02;;;;;;;49.22;23.58;;;0.40;82.10;;;;;;4976151;28;20034;-67
2022/01/14 09:22:30;;;;;;;49.80;22.92;;;0.50;82.10;;;;;;4973945;28;20506;-67
2022/01/14 09:24:58;;;;;;;46.15;22.35;;;0.60;82.20;;;;;;4978396;28;20030;-68
2022/01/14 09:27:23;;;;;;;51.97;24.55;;;0.60;82.20;;;;;;4979080;28;20034;-67
2022/01/14 09:29:49;;;;;;;50.67;23.17;;;0.70;82.30;;;;;;4979709;28;20023;-67
2022/01/14 09:32:15;;;;;;;52.55;22.73;;;0.80;82.30;;;;;;4979305;28;20463;-68
2022/01/14 09:34:40;;;;;;;46.25;22.95;;;0.80;82.30;;;;;;4979352;28;20114;-67
2022/01/14 09:37:06;;;;;;;53.58;24.27;;;0.90;82.30;;;;;;4978574;28;20116;-67
2022/01/14 09:39:33;;;;;;;50.67;22.75;;;1.00;82.30;;;;;;4979020;28;20035;-68
2022/01/14 09:41:59;;;;;;;50.13;23.45;;;1.00;82.30;;;;;;4982869;28;20046;-67
2022/01/14 09:44:25;;;;;;;49.17;24.50;;;1.10;82.30;;;;;;4980004;28;20038;-67
2022/01/14 09:46:52;;;;;;;48.08;23.33;;;1.20;82.30;;;;;;4979652;28;20030;-68
2022/01/14 09:49:19;;;;;;;46.28;23.42;;;1.30;82.30;;;;;;4979656;28;20035;-68
2022/01/14 09:51:46;;;;;;;50.88;23.52;;;1.40;82.10;;;;;;4978181;28;20499;-68
2022/01/14 09:54:12;;;;;;;43.67;21.02;;;1.40;82.10;;;;;;4978412;28;20049;-67
2022/01/14 09:56:39;;;;;;;45.72;22.38;;;1.50;82.10;;;;;;4979626;28;20191;-68
2022/01/14 09:59:06;;;;;;;44.63;22.27;;;1.60;82.10;;;;;;4979302;28;20125;-67
2022/01/14 10:01:44;;;;;;;45.13;23.00;;;1.70;82.00;;;;;;4978551;28;20041;-69
2022/01/14 10:04:15;;;;;;;47.63;22.98;;;1.80;82.00;;;;;;4979236;28;20126;-68
2022/01/14 10:06:51;;;;;;;44.35;22.85;;;1.80;81.70;;;;;;4978802;28;20129;-68
2022/01/14 10:09:22;;;;;;;42.42;22.83;;;1.90;81.60;;;;;;4978231;28;20034;-67
2022/01/14 10:12:00;;;;;;;46.03;21.80;;;2.00;82.40;;;;;;4977116;28;20417;-68
2022/01/14 10:14:26;;;;;;;44.63;22.13;;;2.10;81.50;;;;;;4979319;28;20033;-68
2022/01/14 10:16:56;;;;;;;44.20;22.27;;;2.20;81.40;;;;;;4978368;28;20039;-68
2022/01/14 10:19:27;;;;;;;47.67;22.35;;;2.20;81.40;;;;;;4979494;28;20043;-68
2022/01/14 10:21:54;;;;;;;45.30;22.75;;;2.30;81.40;;;;;;4978579;28;20042;-68
2022/01/14 10:24:23;;;;;;;47.25;23.13;;;2.40;81.30;;;;;;4978980;28;20117;-68
2022/01/14 10:27:00;;;;;;;43.90;22.42;;;2.40;81.20;;;;;;4979016;28;20043;-68
2022/01/14 10:29:32;;;;;;;44.42;22.88;;;2.50;81.20;;;;;;4978787;28;20612;-68
2022/01/14 10:31:59;;;;;;;45.45;23.70;;;2.60;81.50;;;;;;4990135;28;20514;-68
2022/01/14 10:34:26;;;;;;;48.50;24.35;;;2.70;81.20;;;;;;4976776;28;20042;-68
2022/01/14 10:37:08;;;;;;;47.08;23.50;;;2.70;81.10;;;;;;4977538;28;20031;-68
2022/01/14 10:39:34;;;;;;;43.72;23.15;;;2.80;81.10;;;;;;4976553;28;20061;-68
2022/01/14 10:41:59;;;;;;;45.85;23.77;;;2.90;81.00;;;;;;4975012;28;20511;-69
2022/01/14 10:44:27;;;;;;;53.10;23.98;;;3.00;80.90;;;;;;4973826;28;20045;-67
2022/01/14 10:47:11;;;;;;;43.60;23.30;;;3.00;80.80;;;;;;4977357;28;20034;-66
2022/01/14 10:49:38;;;;;;;41.63;22.02;;;3.10;80.90;;;;;;4979899;28;20092;-69
2022/01/14 10:52:16;;;;;;;43.88;21.90;;;3.10;80.70;;;;;;4980562;28;20569;-67
2022/01/14 10:54:49;;;;;;;44.25;22.27;;;3.20;80.60;;;;;;4979930;28;20038;-68
2022/01/14 10:57:22;;;;;;;44.65;22.42;;;3.30;80.60;;;;;;4980025;28;20061;-69
2022/01/14 10:59:50;;;;;;;46.15;23.30;;;3.30;80.60;;;;;;4978858;28;20038;-69
2022/01/14 11:02:38;;;;;;;42.10;21.67;;;3.50;80.60;;;;;;4980727;28;20046;-68
2022/01/14 11:05:15;;;;;;;43.10;22.58;;;3.60;80.50;;;;;;4979343;28;20566;-68
2022/01/14 11:07:42;;;;;;;46.00;23.42;;;3.60;80.30;;;;;;4980575;28;20037;-68
2022/01/14 11:10:16;;;;;;;42.38;21.92;;;3.70;80.20;;;;;;4981210;28;20042;-68
2022/01/14 11:12:43;;;;;;;44.78;22.73;;;3.80;80.20;;;;;;4976906;28;20133;-68
2022/01/14 11:15:10;;;;;;;43.70;23.05;;;3.80;80.20;;;;;;4980465;28;20097;-68
2022/01/14 11:17:40;;;;;;;45.10;22.70;;;3.80;80.20;;;;;;4979586;28;20065;-67
2022/01/14 11:20:09;;;;;;;44.28;23.27;;;3.90;80.10;;;;;;4982494;28;20034;-68
2022/01/14 11:25:19;;;;;;;46.97;23.67;;;4.00;79.90;;;;;;4982312;28;20077;-69
2022/01/14 11:27:53;;;;;;;43.25;23.48;;;4.10;79.90;;;;;;4978567;28;20467;-67
2022/01/14 11:30:20;;;;;;;44.55;23.50;;;4.20;79.90;;;;;;4977934;28;20438;-68
2022/01/14 11:32:58;;;;;;;42.03;22.05;;;4.20;79.70;;;;;;4978215;28;20046;-69
2022/01/14 11:35:25;;;;;;;42.03;21.60;;;4.30;79.60;;;;;;4978675;28;20114;-69
2022/01/14 11:37:51;;;;;;;46.30;23.85;;;4.40;79.60;;;;;;4978483;28;20626;-69
2022/01/14 11:40:19;;;;;;;44.55;23.38;;;4.40;79.40;;;;;;4980800;28;20290;-69
2022/01/14 11:42:50;;;;;;;42.20;22.85;;;4.50;79.40;;;;;;4977475;28;20094;-68
2022/01/14 11:45:40;;;;;;;41.20;22.13;;;4.60;79.40;;;;;;4978717;28;20035;-69
2022/01/14 11:48:07;;;;;;;42.38;22.60;;;4.60;80.00;;;;;;4978374;28;20414;-68
2022/01/14 11:50:32;;;;;;;41.47;22.85;;;4.70;79.20;;;;;;4981020;28;20031;-68
2022/01/14 11:52:59;;;;;;;43.05;22.75;;;4.80;79.20;;;;;;4979096;28;20038;-69
2022/01/14 11:55:29;;;;;;;45.55;22.65;;;4.80;79.10;;;;;;4978234;28;20037;-69
2022/01/14 11:57:58;;;;;;;40.28;21.83;;;4.90;79.00;;;;;;4980661;28;20190;-68
2022/01/14 12:00:30;;;;;;;42.17;21.83;;;5.00;78.80;;;;;;4978178;28;20045;-68
2022/01/14 12:03:17;;;;;;;38.95;21.17;;;5.10;78.60;;;;;;4978272;28;20110;-67
2022/01/14 12:05:54;;;;;;;38.30;21.90;;;5.20;78.10;;;;;;4974139;28;20030;-68
2022/01/14 12:08:27;;;;;;;41.42;22.15;;;5.20;78.00;;;;;;4979040;28;20046;-68
2022/01/14 12:10:54;;;;;;;39.00;22.35;;;5.20;77.90;;;;;;4976357;28;20073;-68
2022/01/14 12:13:25;;;;;;;40.75;21.40;;;5.30;77.80;;;;;;4976668;28;20572;-67
2022/01/14 12:16:00;;;;;;;39.65;21.70;;;5.30;77.80;;;;;;4978848;28;20055;-66
2022/01/14 12:18:56;;;;;;;45.25;23.02;;;5.30;77.70;;;;;;4978247;28;20035;-68
2022/01/14 12:21:44;;;;;;;43.58;21.80;;;5.40;77.60;;;;;;4977775;28;20037;-68
2022/01/14 12:27:11;;;;;;;37.50;20.42;;;5.50;77.90;;;;;;4980344;28;20046;-68
2022/01/14 12:29:42;;;;;;;;;;;5.60;77.40;;;;;;4978692;28;20027;-68
2022/01/14 12:32:12;;;;;;;41.65;20.77;;;5.70;77.60;;;;;;4977960;28;19913;-68
2022/01/14 12:34:39;;;;;;;38.50;20.67;;;5.70;77.50;;;;;;4977532;28;20034;-68
2022/01/14 12:37:05;;;;;;;38.92;21.42;;;5.70;77.30;;;;;;4979148;28;20497;-68
2022/01/14 12:39:32;;;;;;;42.47;22.48;;;5.80;77.10;;;;;;4977500;28;20042;-67
2022/01/14 12:42:00;;;;;;;37.13;21.75;;;5.80;77.10;;;;;;4977723;28;20034;-68
2022/01/14 12:44:27;;;;;;;37.33;21.30;;;5.80;76.90;;;;;;4975588;28;20633;-68
2022/01/14 12:47:00;;;;;;;40.35;21.70;;;5.90;76.90;;;;;;4977967;28;20092;-68
2022/01/14 12:49:32;;;;;;;36.60;20.60;;;5.90;76.60;;;;;;4976988;28;20030;-68
2022/01/14 12:52:14;;;;;;;38.40;21.38;;;5.90;77.50;;;;;;4980555;28;20572;-68
2022/01/14 12:54:42;;;;;;;37.50;20.90;;;6.00;76.50;;;;;;4976190;28;20038;-68
2022/01/14 12:57:08;;;;;;;37.58;21.55;;;6.10;76.70;;;;;;4977160;28;20035;-69
2022/01/14 12:59:52;;;;;;;43.28;22.15;;;6.10;77.40;;;;;;4979932;28;20878;-68
2022/01/14 13:02:20;;;;;;;36.40;20.50;;;6.10;76.10;;;;;;4977233;28;20545;-68